Time;durP1;ratioP1;P1;durP2;ratioP2;P2;SDS_P1;SDS_P2;PMS_P1;PMS_P2;Temp;Humidity;BMP_temperature;BMP_pressure;BME280_temperature;BME280_humidity;BME280_pressure;Samples;Min_cycle;Max_cycle;Signal;HPM_P1;HPM_P2
2022/06/05 00:04:23;;;;;;;12.65;6.22;;;;;;;15.91;67.29;101836.59;10432961;28;20049;-77
2022/06/05 00:10:02;;;;;;;8.68;5.93;;;;;;;16.02;67.36;101818.59;10426763;28;20079;-77
2022/06/05 00:15:05;;;;;;;10.13;6.13;;;;;;;15.85;67.54;101821.75;10430133;28;20049;-77
2022/06/05 00:20:08;;;;;;;12.88;6.40;;;;;;;15.88;67.62;101822.66;10427029;28;20037;-78
2022/06/05 00:25:10;;;;;;;12.50;6.00;;;;;;;15.62;68.41;101823.00;10429525;28;20055;-78
2022/06/05 00:30:21;;;;;;;11.60;6.40;;;;;;;15.69;68.05;101815.38;10430396;28;20444;-78
2022/06/05 00:35:30;;;;;;;12.45;6.45;;;;;;;15.54;68.64;101804.69;10433979;28;20041;-78
2022/06/05 00:40:58;;;;;;;11.75;6.53;;;;;;;15.51;68.69;101792.50;10411913;28;20136;-78
2022/06/05 00:46:03;;;;;;;11.50;6.25;;;;;;;15.50;68.88;101790.75;10427224;28;20480;-78
2022/06/05 00:51:04;;;;;;;12.27;6.10;;;;;;;15.33;69.62;101795.63;10427970;28;20046;-78
2022/06/05 00:56:10;;;;;;;14.10;6.85;;;;;;;15.29;69.94;101782.53;10420836;28;20051;-77
2022/06/05 01:01:13;;;;;;;12.52;6.72;;;;;;;15.30;69.63;101774.78;10431456;28;20107;-77
2022/06/05 01:06:14;;;;;;;13.60;7.82;;;;;;;15.17;69.92;101773.63;10429204;28;20045;-77
2022/06/05 01:12:01;;;;;;;10.38;6.70;;;;;;;15.01;71.13;101766.38;10435411;28;20034;-80
2022/06/05 01:17:25;;;;;;;12.48;7.43;;;;;;;14.91;71.29;101761.00;10430143;28;20061;-77
2022/06/05 01:22:50;;;;;;;11.70;7.72;;;;;;;14.96;71.18;101762.81;10426976;28;20042;-78
2022/06/05 01:27:57;;;;;;;14.90;7.90;;;;;;;14.87;71.72;101764.34;10430724;28;20045;-79
2022/06/05 01:33:06;;;;;;;13.15;8.20;;;;;;;14.72;72.36;101754.53;10423110;28;20112;-78
2022/06/05 01:38:17;;;;;;;12.20;8.07;;;;;;;14.76;71.94;101750.28;10420419;28;20054;-77
2022/06/05 01:43:23;;;;;;;14.10;8.60;;;;;;;14.67;72.91;101737.09;10432527;28;20045;-77
2022/06/05 01:48:37;;;;;;;14.93;8.50;;;;;;;14.55;73.11;101741.16;10432455;28;20056;-78
2022/06/05 01:53:44;;;;;;;12.05;8.10;;;;;;;14.53;73.48;101737.66;10448165;28;20049;-78
2022/06/05 01:59:10;;;;;;;12.73;7.55;;;;;;;14.37;74.00;101741.56;10436444;28;20045;-79
2022/06/05 02:04:17;;;;;;;16.02;7.72;;;;;;;14.37;73.95;101731.22;10432489;28;20532;-79
2022/06/05 02:09:25;;;;;;;15.80;8.43;;;;;;;14.40;74.53;101725.25;10443778;28;20283;-79
2022/06/05 02:14:29;;;;;;;16.53;8.73;;;;;;;14.16;74.33;101718.63;10451796;28;20145;-77
2022/06/05 02:19:33;;;;;;;16.20;8.82;;;;;;;14.19;74.51;101723.88;10423120;28;20049;-78
2022/06/05 02:24:35;;;;;;;19.20;9.30;;;;;;;14.06;75.06;101708.88;10421690;28;20056;-78
2022/06/05 02:29:37;;;;;;;15.05;9.30;;;;;;;13.99;75.65;101687.13;10417858;28;20045;-79
2022/06/05 02:34:54;;;;;;;16.00;9.13;;;;;;;13.99;75.93;101678.47;10418834;28;20057;-78
2022/06/05 02:40:10;;;;;;;15.45;8.57;;;;;;;14.00;75.91;101662.09;10409703;28;20049;-78
2022/06/05 02:45:27;;;;;;;15.13;9.20;;;;;;;13.94;75.62;101648.16;10421983;28;20057;-79
2022/06/05 02:50:52;;;;;;;15.30;8.90;;;;;;;13.80;76.35;101639.19;10425536;28;20049;-79
2022/06/05 02:55:54;;;;;;;16.10;9.52;;;;;;;13.80;76.48;101618.47;10424615;28;20046;-78
2022/06/05 03:06:24;;;;;;;15.85;9.00;;;;;;;13.64;77.15;101602.56;10429412;28;20041;-78
2022/06/05 03:11:26;;;;;;;16.80;9.02;;;;;;;13.55;77.08;101598.88;10421019;28;20042;-75
2022/06/05 03:16:28;;;;;;;17.27;9.43;;;;;;;13.54;77.35;101600.56;10412862;28;20563;-74
2022/06/05 03:21:31;;;;;;;18.75;10.00;;;;;;;13.56;77.23;101593.72;10413601;28;20556;-75
2022/06/05 03:26:34;;;;;;;20.25;10.23;;;;;;;13.64;77.28;101597.38;10413567;28;20393;-74
2022/06/05 03:31:37;;;;;;;15.80;9.70;;;;;;;13.58;77.30;101581.69;10410704;28;20470;-75
2022/06/05 03:36:38;;;;;;;16.45;9.73;;;;;;;13.50;77.54;101578.03;10391225;28;20188;-74
2022/06/05 03:41:40;;;;;;;18.33;10.20;;;;;;;13.59;77.19;101565.31;10413468;28;20103;-74
2022/06/05 03:46:42;;;;;;;15.60;9.13;;;;;;;13.60;77.06;101561.88;10430946;28;20056;-75
2022/06/05 03:51:45;;;;;;;16.80;9.90;;;;;;;13.71;76.70;101559.53;10417965;28;20088;-75
2022/06/05 03:56:47;;;;;;;15.07;9.57;;;;;;;13.67;76.64;101554.25;10413517;28;20041;-74
2022/06/05 04:01:48;;;;;;;16.08;10.25;;;;;;;13.61;77.16;101563.63;10419068;28;20444;-75
2022/06/05 04:06:50;;;;;;;19.75;10.40;;;;;;;13.59;77.24;101561.84;10419891;28;20485;-75
2022/06/05 04:11:52;;;;;;;18.63;10.43;;;;;;;13.99;76.52;101577.44;10418810;28;20038;-75
2022/06/05 04:16:53;;;;;;;20.48;10.63;;;;;;;13.92;76.02;101572.13;10420298;28;20045;-75
2022/06/05 04:21:55;;;;;;;16.90;10.18;;;;;;;13.92;75.94;101582.50;10419908;28;20038;-74
2022/06/05 04:26:57;;;;;;;20.27;11.43;;;;;;;13.92;76.24;101571.25;10451711;28;20123;-75
2022/06/05 04:31:59;;;;;;;17.67;10.18;;;;;;;13.99;75.87;101573.16;10418825;28;20045;-74
2022/06/05 04:37:01;;;;;;;18.42;10.43;;;;;;;14.00;75.94;101568.84;10419360;28;20420;-75
2022/06/05 04:42:03;;;;;;;18.42;11.20;;;;;;;14.05;75.81;101567.22;10403807;28;20049;-75
2022/06/05 04:47:05;;;;;;;19.35;10.35;;;;;;;14.22;75.41;101555.50;10387524;28;20452;-74
2022/06/05 04:52:07;;;;;;;19.15;11.40;;;;;;;14.38;74.92;101551.50;10433641;28;20132;-75
2022/06/05 04:57:09;;;;;;;15.88;9.98;;;;;;;14.55;74.48;101553.56;10406088;28;20041;-75
2022/06/05 05:02:10;;;;;;;14.52;9.48;;;;;;;14.60;74.11;101558.00;10449377;28;20132;-74
2022/06/05 05:07:12;;;;;;;18.25;9.82;;;;;;;14.79;74.22;101558.38;10415871;28;20112;-75
2022/06/05 05:12:20;;;;;;;19.30;10.15;;;;;;;14.93;73.05;101560.38;10415382;28;20051;-74
2022/06/05 05:17:22;;;;;;;19.05;10.63;;;;;;;15.16;72.48;101559.06;10413135;28;20370;-74
2022/06/05 05:22:24;;;;;;;16.92;9.82;;;;;;;15.11;72.39;101555.50;10412997;28;20062;-75
2022/06/05 05:27:26;;;;;;;16.30;9.30;;;;;;;15.39;71.91;101563.75;10415902;28;20492;-75
2022/06/05 05:32:28;;;;;;;15.90;9.52;;;;;;;15.38;70.99;101556.81;10415003;28;20041;-74
2022/06/05 05:37:29;;;;;;;16.50;9.95;;;;;;;15.55;71.08;101547.59;10407984;28;20050;-75
2022/06/05 05:42:31;;;;;;;14.38;9.85;;;;;;;15.64;71.44;101552.03;10409871;28;20053;-74
2022/06/05 05:47:33;;;;;;;15.90;9.50;;;;;;;15.73;70.34;101547.84;10415985;28;20103;-75
2022/06/05 05:52:35;;;;;;;15.75;9.43;;;;;;;16.10;69.66;101551.00;10414869;28;20037;-75
2022/06/05 05:58:14;;;;;;;16.65;9.60;;;;;;;16.17;69.99;101553.72;10416403;28;20132;-75
2022/06/05 06:03:15;;;;;;;15.05;9.57;;;;;;;16.55;69.91;101549.81;10407745;28;20033;-75
2022/06/05 06:08:17;;;;;;;12.90;9.93;;;;;;;16.71;68.67;101550.00;10416385;28;20057;-75
2022/06/05 06:13:18;;;;;;;17.23;9.60;;;;;;;16.80;67.51;101540.53;10431011;28;20056;-75
2022/06/05 06:18:20;;;;;;;14.70;8.95;;;;;;;16.86;68.10;101539.75;10436039;28;20064;-75
2022/06/05 06:23:22;;;;;;;11.73;8.60;;;;;;;17.04;67.54;101533.00;10451582;28;20041;-76
2022/06/05 06:28:24;;;;;;;12.25;8.18;;;;;;;17.20;67.68;101528.81;10404992;28;20115;-75
2022/06/05 06:33:26;;;;;;;13.88;8.43;;;;;;;17.36;66.87;101520.25;10412403;28;20441;-76
2022/06/05 06:38:28;;;;;;;14.27;8.10;;;;;;;17.54;65.92;101513.41;10414384;28;20091;-76
2022/06/05 06:43:29;;;;;;;11.50;7.95;;;;;;;17.71;65.91;101509.19;10412927;28;20053;-75
2022/06/05 06:48:31;;;;;;;9.32;7.20;;;;;;;17.83;65.59;101504.94;10414633;28;20485;-73
2022/06/05 06:53:39;;;;;;;8.70;6.82;;;;;;;17.95;64.67;101502.41;10411224;28;20053;-75
2022/06/05 06:58:43;;;;;;;10.45;7.18;;;;;;;18.09;65.56;101497.28;10413150;28;20501;-75
2022/06/05 07:03:44;;;;;;;10.02;6.80;;;;;;;18.11;64.66;101479.88;10413043;28;20045;-75
2022/06/05 07:08:46;;;;;;;12.20;7.53;;;;;;;18.34;64.71;101477.38;10412721;28;20049;-74
2022/06/05 07:13:49;;;;;;;13.32;6.63;;;;;;;18.46;64.43;101463.47;10427011;28;20041;-74
2022/06/05 07:18:51;;;;;;;8.40;6.60;;;;;;;18.61;63.66;101457.41;10412624;28;20050;-74
2022/06/05 07:23:54;;;;;;;9.00;6.57;;;;;;;18.88;64.44;101455.66;10408562;28;20038;-74
2022/06/05 07:28:58;;;;;;;7.63;5.97;;;;;;;19.04;62.76;101448.75;10415057;28;20045;-75
2022/06/05 07:34:00;;;;;;;7.18;5.90;;;;;;;19.27;62.02;101440.03;10447567;28;20053;-74
2022/06/05 07:39:03;;;;;;;9.45;6.07;;;;;;;19.31;60.26;101432.19;10419074;28;20491;-76
2022/06/05 07:44:06;;;;;;;7.55;5.70;;;;;;;19.75;61.08;101405.91;10421806;28;20591;-75
2022/06/05 07:49:09;;;;;;;7.85;6.07;;;;;;;19.85;59.98;101396.31;10419522;28;20056;-75
2022/06/05 07:54:27;;;;;;;8.40;6.07;;;;;;;19.97;59.01;101385.78;10420195;28;20080;-76
2022/06/05 07:59:34;;;;;;;7.97;5.82;;;;;;;20.03;57.87;101377.03;10411552;28;20041;-75
2022/06/05 08:04:36;;;;;;;7.88;5.95;;;;;;;20.22;59.36;101364.72;10410945;28;20420;-75
2022/06/05 08:09:39;;;;;;;9.00;6.22;;;;;;;20.41;58.58;101361.06;10430155;28;20068;-75
2022/06/05 08:14:43;;;;;;;7.32;6.00;;;;;;;20.70;59.06;101362.56;10411423;28;20037;-74
2022/06/05 08:19:45;;;;;;;6.68;5.75;;;;;;;21.05;58.99;101350.06;10410760;28;20045;-75
2022/06/05 08:24:47;;;;;;;11.98;6.43;;;;;;;20.81;57.05;101343.31;10413471;28;20066;-75
2022/06/05 08:29:51;;;;;;;7.20;5.90;;;;;;;20.75;56.21;101329.41;10415817;28;20046;-75
2022/06/05 08:34:54;;;;;;;10.63;6.40;;;;;;;20.84;56.17;101327.59;10414881;28;20103;-75
2022/06/05 08:45:27;;;;;;;6.75;5.80;;;;;;;21.39;57.52;101328.72;10408486;28;20045;-74
2022/06/05 08:50:46;;;;;;;6.43;5.35;;;;;;;21.29;55.75;101317.50;10414773;28;20037;-75
2022/06/05 08:56:19;;;;;;;7.03;6.03;;;;;;;21.42;56.60;101320.78;10412177;28;20045;-74
2022/06/05 09:01:33;;;;;;;9.02;6.20;;;;;;;21.64;54.65;101315.31;10415961;28;20056;-74
2022/06/05 09:12:24;;;;;;;11.63;6.25;;;;;;;22.86;55.27;101315.97;10402404;28;20045;-74
2022/06/05 09:17:27;;;;;;;8.90;5.82;;;;;;;22.73;53.20;101325.00;10410394;28;20088;-75
2022/06/05 09:22:57;;;;;;;8.05;6.00;;;;;;;23.17;51.20;101325.94;10410563;28;20041;-74
2022/06/05 09:28:24;;;;;;;7.45;5.45;;;;;;;23.40;52.54;101319.34;10415633;28;20072;-74
2022/06/05 09:33:32;;;;;;;8.68;5.78;;;;;;;23.68;53.57;101316.97;10431823;28;20091;-74
2022/06/05 09:38:54;;;;;;;19.13;6.20;;;;;;;23.25;51.68;101302.13;10416821;28;20488;-75
2022/06/05 09:44:18;;;;;;;6.32;5.70;;;;;;;23.20;52.36;101298.72;10415110;28;20041;-75
2022/06/05 09:49:33;;;;;;;7.20;5.85;;;;;;;23.28;53.24;101281.03;10413359;28;20543;-74
2022/06/05 09:54:42;;;;;;;7.43;5.40;;;;;;;22.82;52.67;101270.50;10388492;28;20045;-75
2022/06/05 09:59:53;;;;;;;6.68;5.53;;;;;;;22.73;52.96;101257.59;10388985;28;20084;-74
2022/06/05 10:04:56;;;;;;;6.65;5.28;;;;;;;22.72;53.88;101260.22;10405389;28;20076;-75
2022/06/05 10:10:21;;;;;;;6.20;5.40;;;;;;;22.61;53.52;101252.53;10406083;28;20472;-74
2022/06/05 10:15:28;;;;;;;9.93;6.25;;;;;;;22.33;53.27;101274.03;10411161;28;20067;-75
2022/06/05 10:20:49;;;;;;;8.15;6.00;;;;;;;22.45;54.11;101278.22;10405499;28;20493;-74
2022/06/05 10:25:59;;;;;;;8.65;6.00;;;;;;;22.38;54.09;101279.19;10408504;28;20064;-75
2022/06/05 10:31:06;;;;;;;6.90;5.85;;;;;;;22.37;54.03;101275.72;10401943;28;20037;-74
2022/06/05 10:36:20;;;;;;;9.48;6.60;;;;;;;22.29;54.92;101274.97;10411461;28;20045;-74
2022/06/05 10:41:35;;;;;;;6.35;5.50;;;;;;;22.63;54.89;101261.28;10405627;28;20037;-74
2022/06/05 10:46:53;;;;;;;8.75;6.20;;;;;;;22.49;54.48;101259.78;10406784;28;20046;-75
2022/06/05 10:52:21;;;;;;;8.43;6.13;;;;;;;22.70;54.84;101247.13;10403039;28;20033;-75
2022/06/05 10:57:34;;;;;;;7.40;5.90;;;;;;;22.85;55.24;101245.09;10404038;28;20057;-74
2022/06/05 11:03:04;;;;;;;8.10;6.22;;;;;;;22.82;54.61;101233.75;10412422;28;20049;-74
2022/06/05 11:08:05;;;;;;;8.10;5.93;;;;;;;22.74;55.41;101230.44;10411364;28;20054;-74
2022/06/05 11:18:50;;;;;;;9.45;6.22;;;;;;;22.69;55.01;101211.25;10410716;28;20287;-74
2022/06/05 11:23:57;;;;;;;7.30;6.13;;;;;;;22.75;55.56;101213.75;10415861;28;20488;-75
2022/06/05 11:29:11;;;;;;;9.35;6.82;;;;;;;22.62;55.39;101191.25;10411759;28;20064;-74
2022/06/05 11:34:43;;;;;;;8.15;5.97;;;;;;;22.80;57.22;101198.78;10415056;28;20492;-74
2022/06/05 11:39:53;;;;;;;8.07;6.38;;;;;;;22.62;55.64;101197.41;10414243;28;20409;-74
2022/06/05 11:45:19;;;;;;;7.63;6.10;;;;;;;22.53;55.44;101191.44;10409119;28;20064;-74
2022/06/05 11:50:32;;;;;;;7.60;6.10;;;;;;;22.45;55.19;101189.81;10409624;28;20108;-75
2022/06/05 11:56:18;;;;;;;7.07;6.38;;;;;;;22.70;56.42;101186.72;10413285;28;20052;-75
2022/06/05 12:01:26;;;;;;;8.70;6.18;;;;;;;22.42;56.43;101170.63;10397194;28;20056;-75
2022/06/05 12:06:38;;;;;;;7.65;6.72;;;;;;;22.40;57.07;101168.06;10411778;28;20045;-74
2022/06/05 12:11:51;;;;;;;7.43;6.18;;;;;;;22.48;57.49;101160.91;10412083;28;20053;-75
2022/06/05 12:17:06;;;;;;;10.10;6.90;;;;;;;22.22;56.85;101164.00;10412345;28;20099;-74
2022/06/05 12:22:19;;;;;;;10.02;7.10;;;;;;;22.03;59.55;101148.59;10398760;28;20134;-75
2022/06/05 12:27:21;;;;;;;9.93;7.35;;;;;;;21.80;59.84;101148.97;10412772;28;20045;-75
2022/06/05 12:32:40;;;;;;;8.80;6.93;;;;;;;21.88;59.69;101135.75;10408406;28;20037;-75
2022/06/05 12:38:23;;;;;;;13.73;7.10;;;;;;;22.00;60.09;101121.56;10423540;28;20488;-74
2022/06/05 12:43:30;;;;;;;7.82;6.60;;;;;;;21.95;59.95;101118.13;10411414;28;20448;-74
2022/06/05 12:48:35;;;;;;;11.98;6.88;;;;;;;22.00;59.95;101111.06;10425245;28;20467;-75
2022/06/05 12:53:52;;;;;;;8.30;6.82;;;;;;;22.01;59.94;101102.28;10409403;28;20045;-76
2022/06/05 12:58:56;;;;;;;;;;;;;;;22.00;59.87;101090.06;10425003;28;20053;-75
2022/06/05 13:04:05;;;;;;;7.68;6.88;;;;;;;22.12;60.39;101087.22;10410563;28;19925;-76
2022/06/05 13:09:28;;;;;;;8.05;7.25;;;;;;;22.10;60.25;101082.88;10424643;28;20444;-75
2022/06/05 13:14:44;;;;;;;8.43;7.00;;;;;;;22.32;61.36;101072.81;10404898;28;20075;-76
2022/06/05 13:19:52;;;;;;;8.13;7.05;;;;;;;21.95;61.15;101070.91;10406197;28;20049;-76
2022/06/05 13:25:15;;;;;;;11.40;8.32;;;;;;;21.76;61.78;101071.28;10405638;28;20104;-75
2022/06/05 13:30:20;;;;;;;10.00;8.80;;;;;;;21.95;63.29;101068.28;10407894;28;20052;-75
2022/06/05 13:35:44;;;;;;;11.23;10.05;;;;;;;21.72;64.92;101053.84;10412983;28;20119;-75
2022/06/05 13:40:55;;;;;;;13.27;9.35;;;;;;;22.05;65.10;101051.50;10407332;28;20489;-76
2022/06/05 13:46:01;;;;;;;14.93;9.48;;;;;;;21.73;67.98;101062.59;10409979;28;20049;-75
2022/06/05 13:51:17;;;;;;;13.85;9.60;;;;;;;21.36;71.77;101053.56;10408227;28;20037;-75
2022/06/05 13:56:19;;;;;;;23.90;11.52;;;;;;;21.49;72.75;101060.31;10407731;28;20046;-75
2022/06/05 14:01:39;;;;;;;12.38;9.20;;;;;;;21.13;75.34;101060.03;10407690;28;20079;-77
2022/06/05 14:07:02;;;;;;;11.27;8.73;;;;;;;21.26;75.95;101052.00;10415654;28;20463;-76
2022/06/05 14:12:06;;;;;;;8.05;6.88;;;;;;;20.87;74.33;101065.69;10422768;28;20048;-76
2022/06/05 14:17:26;;;;;;;6.93;3.83;;;;;;;19.66;76.66;101080.97;10436779;28;20052;-78
2022/06/05 14:22:43;;;;;;;5.82;4.32;;;;;;;19.04;80.78;101072.75;10438058;28;20049;-77
2022/06/05 14:27:51;;;;;;;6.10;4.00;;;;;;;18.91;81.33;101074.53;10431526;28;20058;-76
2022/06/05 14:32:55;;;;;;;7.22;4.45;;;;;;;18.96;82.13;101075.38;10406781;28;20038;-76
2022/06/05 14:38:42;;;;;;;5.38;3.85;;;;;;;19.29;80.85;101056.88;10409597;28;20152;-77
2022/06/05 14:44:12;;;;;;;6.00;4.40;;;;;;;19.11;80.70;101060.50;10402490;28;20152;-77
2022/06/05 14:49:42;;;;;;;5.65;4.32;;;;;;;19.00;81.46;101053.63;10402678;28;20060;-76
2022/06/05 15:00:21;;;;;;;5.68;4.25;;;;;;;18.91;81.78;101037.97;10399861;28;20076;-77
2022/06/05 15:05:28;;;;;;;6.55;4.38;;;;;;;19.00;81.44;101034.47;10395760;28;20041;-76
2022/06/05 15:10:47;;;;;;;5.90;4.38;;;;;;;18.84;82.23;101033.69;10407478;28;20041;-76
2022/06/05 15:16:02;;;;;;;5.82;4.90;;;;;;;18.92;81.86;101026.69;10402779;28;20041;-76
2022/06/05 15:21:17;;;;;;;6.25;5.15;;;;;;;18.90;82.88;101022.34;10403911;28;20092;-76
2022/06/05 15:26:51;;;;;;;8.45;6.65;;;;;;;18.88;82.80;101006.66;10407162;28;20049;-76
2022/06/05 15:32:19;;;;;;;8.50;6.47;;;;;;;19.06;82.22;100991.78;10395545;28;20061;-76
2022/06/05 15:37:46;;;;;;;9.07;7.50;;;;;;;19.26;81.82;100987.25;10404111;28;20046;-75
2022/06/05 15:42:59;;;;;;;7.82;6.93;;;;;;;19.14;81.53;100976.94;10399182;28;20480;-76
2022/06/05 15:48:04;;;;;;;14.95;7.88;;;;;;;19.33;80.81;100965.41;10408840;28;20137;-75
2022/06/05 15:53:23;;;;;;;10.80;8.02;;;;;;;19.50;79.27;100956.56;10400202;28;20041;-75
2022/06/05 15:58:41;;;;;;;9.57;8.38;;;;;;;19.44;78.64;100956.63;10412848;28;20057;-76
2022/06/05 16:04:08;;;;;;;8.73;7.80;;;;;;;19.39;77.62;100953.19;10413962;28;20042;-78
2022/06/05 16:09:20;;;;;;;9.90;8.38;;;;;;;19.19;77.95;100946.41;10418205;28;20493;-77
2022/06/05 16:14:50;;;;;;;9.95;8.82;;;;;;;19.34;76.76;100941.03;10414182;28;20124;-78
2022/06/05 16:19:57;;;;;;;9.88;8.77;;;;;;;19.38;78.67;100930.56;10417748;28;20041;-78
2022/06/05 16:25:19;;;;;;;10.68;9.48;;;;;;;19.51;76.55;100926.94;10415208;28;20037;-78
2022/06/05 16:30:31;;;;;;;10.25;9.07;;;;;;;19.61;77.17;100930.31;10420447;28;20045;-77
2022/06/05 16:41:16;;;;;;;12.10;10.77;;;;;;;19.57;76.46;100920.78;10418039;28;20045;-76
2022/06/05 16:46:30;;;;;;;11.82;10.55;;;;;;;19.73;77.23;100916.22;10422019;28;20067;-79
2022/06/05 16:51:40;;;;;;;12.40;10.45;;;;;;;19.63;77.55;100916.34;10421066;28;20119;-78
2022/06/05 16:57:03;;;;;;;13.25;11.07;;;;;;;19.60;78.21;100919.00;10418945;28;20049;-78
2022/06/05 17:02:12;;;;;;;13.05;11.20;;;;;;;19.43;77.64;100915.69;10417931;28;20095;-78
2022/06/05 17:07:30;;;;;;;14.50;12.48;;;;;;;19.33;78.74;100910.56;10418643;28;20111;-79
2022/06/05 17:12:48;;;;;;;13.15;11.85;;;;;;;19.22;80.37;100904.59;10419096;28;20048;-79
2022/06/05 17:18:19;;;;;;;15.20;12.73;;;;;;;19.11;80.46;100899.47;10417577;28;20088;-80
2022/06/05 17:23:35;;;;;;;14.57;12.43;;;;;;;19.31;80.28;100893.19;10385276;28;20042;-77
2022/06/05 17:28:52;;;;;;;15.52;12.95;;;;;;;19.17;81.31;100885.50;10424022;28;20049;-78
2022/06/05 17:34:26;;;;;;;15.38;13.70;;;;;;;19.23;81.67;100880.22;10415159;28;20492;-79
2022/06/05 17:39:35;;;;;;;14.63;12.88;;;;;;;19.25;81.73;100883.66;10397528;28;20063;-78
2022/06/05 17:45:02;;;;;;;15.88;13.55;;;;;;;19.24;82.17;100876.72;10426314;28;20386;-79
2022/06/05 17:50:04;;;;;;;16.73;13.65;;;;;;;19.39;81.79;100861.78;10415611;28;20455;-80
2022/06/05 17:55:15;;;;;;;16.92;14.18;;;;;;;19.37;82.09;100866.13;10447228;28;20067;-80
2022/06/05 18:00:20;;;;;;;15.70;13.73;;;;;;;19.60;81.34;100865.84;10413557;28;20571;-79
2022/06/05 18:05:29;;;;;;;15.88;14.18;;;;;;;19.58;81.30;100862.41;10408756;28;20045;-80
2022/06/05 18:10:33;;;;;;;18.02;15.05;;;;;;;19.53;81.76;100854.63;10443283;28;20402;-80
2022/06/05 18:15:34;;;;;;;15.35;10.63;;;;;;;19.40;82.84;100847.81;10410356;28;20091;-79
2022/06/05 18:20:52;;;;;;;14.02;11.38;;;;;;;19.23;83.19;100848.00;10400534;28;20440;-79
2022/06/05 18:26:01;;;;;;;13.70;11.57;;;;;;;19.11;84.17;100846.38;10386191;28;20050;-80
2022/06/05 18:31:18;;;;;;;14.30;12.40;;;;;;;19.13;84.11;100842.00;10399908;28;20049;-80
2022/06/05 18:42:06;;;;;;;13.95;12.00;;;;;;;18.93;84.47;100840.47;10409999;28;20505;-80
2022/06/05 18:47:16;;;;;;;14.45;12.68;;;;;;;18.94;84.51;100836.13;10413471;28;20061;-79
2022/06/05 18:52:27;;;;;;;15.43;12.95;;;;;;;18.91;85.09;100839.59;10411821;28;20045;-80
2022/06/05 18:57:33;;;;;;;15.95;12.55;;;;;;;18.75;85.41;100830.16;10411014;28;20049;-80
2022/06/05 19:02:55;;;;;;;20.40;13.60;;;;;;;18.79;85.13;100837.09;10411799;28;20096;-80
2022/06/05 19:07:58;;;;;;;16.95;14.45;;;;;;;18.67;85.36;100838.94;10410441;28;20416;-80
2022/06/05 19:13:20;;;;;;;16.52;13.82;;;;;;;18.79;85.38;100834.50;10407974;28;20076;-80
2022/06/05 19:18:55;;;;;;;17.17;15.20;;;;;;;18.69;85.31;100837.19;10410039;28;20450;-79
2022/06/05 19:24:05;;;;;;;15.70;13.85;;;;;;;18.43;85.94;100842.63;10377688;28;20057;-79
2022/06/05 19:29:31;;;;;;;17.00;14.10;;;;;;;18.36;86.18;100844.38;10419723;28;20045;-79
2022/06/05 19:34:38;;;;;;;16.73;14.15;;;;;;;18.43;86.08;100849.59;10412882;28;20096;-79
2022/06/05 19:39:43;;;;;;;20.00;15.02;;;;;;;18.48;86.01;100850.41;10431653;28;20401;-80
2022/06/05 19:44:45;;;;;;;18.48;14.52;;;;;;;18.42;86.53;100853.06;10420527;28;20408;-79
2022/06/05 19:49:52;;;;;;;18.73;14.98;;;;;;;18.43;86.31;100857.41;10415594;28;20053;-80
2022/06/05 19:54:56;;;;;;;21.02;15.43;;;;;;;18.48;86.12;100866.06;10429094;28;20045;-79
2022/06/05 20:00:13;;;;;;;19.73;16.05;;;;;;;18.21;87.08;100875.78;10420676;28;20054;-80
2022/06/05 20:05:29;;;;;;;17.00;15.07;;;;;;;17.96;88.18;100890.69;10420325;28;20451;-81
2022/06/05 20:10:44;;;;;;;14.57;12.15;;;;;;;17.69;89.00;100902.97;10422164;28;20057;-79
2022/06/05 20:15:47;;;;;;;11.30;7.68;;;;;;;17.39;89.49;100913.44;10416653;28;20452;-79
2022/06/05 20:20:54;;;;;;;11.57;6.00;;;;;;;17.18;89.81;100931.72;10408431;28;20116;-80
2022/06/05 20:26:20;;;;;;;8.55;5.32;;;;;;;17.20;89.84;100935.19;10421049;28;20041;-80
2022/06/05 20:31:33;;;;;;;5.22;4.03;;;;;;;17.07;90.10;100929.13;10418731;28;20044;-80
2022/06/05 20:37:21;;;;;;;5.18;3.50;;;;;;;16.99;90.19;100934.34;10427829;28;20558;-79
2022/06/05 20:42:46;;;;;;;5.80;4.22;;;;;;;16.90;90.46;100931.69;10408841;28;20057;-80
2022/06/05 20:48:00;;;;;;;5.45;4.60;;;;;;;16.92;90.34;100937.78;10421240;28;20041;-78
2022/06/05 20:53:05;;;;;;;6.60;4.90;;;;;;;16.85;90.15;100938.63;10425106;28;20094;-78
2022/06/05 20:58:25;;;;;;;6.25;4.57;;;;;;;16.78;90.15;100943.84;10424655;28;20095;-78
2022/06/05 21:09:48;;;;;;;7.75;4.88;;;;;;;16.59;90.11;100957.69;10422049;28;20046;-78
2022/06/05 21:20:14;;;;;;;7.82;6.03;;;;;;;16.49;89.92;100988.84;10422696;28;20538;-79
2022/06/05 21:25:40;;;;;;;7.97;6.53;;;;;;;16.47;89.35;101006.22;10410015;28;20135;-80
2022/06/05 21:30:47;;;;;;;8.88;7.50;;;;;;;16.52;89.26;101023.53;10420300;28;20042;-79
2022/06/05 21:36:03;;;;;;;11.20;8.90;;;;;;;16.61;89.28;101029.63;10418808;28;20045;-78
2022/06/05 21:41:35;;;;;;;19.83;13.38;;;;;;;16.68;89.59;101040.94;10417287;28;20451;-79
2022/06/05 21:46:39;;;;;;;25.95;18.52;;;;;;;16.76;90.28;101043.53;10404671;28;20038;-79
2022/06/05 21:51:43;;;;;;;35.75;23.63;;;;;;;16.77;90.09;101051.38;10418091;28;20049;-79
2022/06/05 21:56:47;;;;;;;34.67;22.98;;;;;;;16.70;90.01;101069.56;10400230;28;20058;-79
2022/06/05 22:01:52;;;;;;;28.00;18.45;;;;;;;16.55;88.77;101073.84;10419588;28;20046;-79
2022/06/05 22:06:54;;;;;;;26.80;18.17;;;;;;;16.61;88.11;101092.06;10423112;28;20393;-79
2022/06/05 22:11:56;;;;;;;25.75;17.98;;;;;;;16.61;88.42;101110.28;10399833;28;20052;-79
2022/06/05 22:17:00;;;;;;;27.08;17.90;;;;;;;16.55;88.26;101117.19;10416108;28;20095;-79
2022/06/05 22:22:07;;;;;;;27.25;17.80;;;;;;;16.56;88.46;101129.34;10412458;28;20042;-79
2022/06/05 22:27:15;;;;;;;23.40;15.40;;;;;;;16.32;88.17;101136.16;10403049;28;20045;-80
2022/06/05 22:32:18;;;;;;;27.05;16.02;;;;;;;16.28;87.56;101142.16;10406946;28;20072;-79
2022/06/05 22:37:19;;;;;;;24.38;15.20;;;;;;;16.20;87.50;101139.53;10409895;28;20037;-79
2022/06/05 22:42:21;;;;;;;31.65;18.33;;;;;;;16.18;87.73;101147.34;10404199;28;20045;-80
2022/06/05 22:47:23;;;;;;;37.33;21.27;;;;;;;16.13;87.81;101159.41;10405938;28;20049;-79
2022/06/05 22:52:25;;;;;;;42.35;23.90;;;;;;;16.12;87.94;101149.88;10407513;28;20045;-80
2022/06/05 22:57:27;;;;;;;50.15;23.98;;;;;;;16.04;88.20;101172.38;10414578;28;20064;-77
2022/06/05 23:02:29;;;;;;;60.08;29.23;;;;;;;15.95;88.29;101165.34;10425257;28;20045;-79
2022/06/05 23:07:31;;;;;;;78.35;34.63;;;;;;;16.02;88.08;101179.25;10434019;28;20045;-76
2022/06/05 23:12:34;;;;;;;74.80;34.83;;;;;;;16.06;88.23;101175.81;10396690;28;20572;-76
2022/06/05 23:17:36;;;;;;;80.43;37.25;;;;;;;16.06;87.92;101175.81;10408509;28;20504;-76
2022/06/05 23:22:43;;;;;;;81.35;36.30;;;;;;;16.01;87.68;101177.53;10417233;28;20059;-76
2022/06/05 23:27:48;;;;;;;70.07;30.83;;;;;;;15.95;87.72;101180.06;10421741;28;20563;-77
2022/06/05 23:32:50;;;;;;;76.13;32.03;;;;;;;15.94;87.95;101178.34;10409145;28;20447;-77
2022/06/05 23:37:52;;;;;;;83.75;34.25;;;;;;;16.00;88.21;101176.66;10423185;28;20054;-77
2022/06/05 23:42:54;;;;;;;69.63;29.83;;;;;;;15.96;88.16;101177.47;10418859;28;20041;-77
2022/06/05 23:47:56;;;;;;;74.90;29.40;;;;;;;15.86;88.56;101173.94;10418433;28;20049;-77
2022/06/05 23:52:57;;;;;;;75.10;25.58;;;;;;;15.97;88.56;101176.63;10416871;28;20050;-78
2022/06/05 23:57:59;;;;;;;72.85;25.73;;;;;;;15.88;88.61;101184.34;10416504;28;20520;-78
